sensor_id;sensor_type;location;lat;lon;timestamp;pressure;altitude;pressure_sealevel;temperature;humidity
2675;BME280;1347;42.122;24.746;2022-11-27T12:54:23;100479.72;;;11.34;45.00
2675;BME280;1347;42.122;24.746;2022-11-27T12:56:56;100476.16;;;11.34;45.44
2675;BME280;1347;42.122;24.746;2022-11-27T12:59:26;100473.97;;;11.39;45.27
2675;BME280;1347;42.122;24.746;2022-11-27T13:02:09;100477.94;;;11.42;44.51
2675;BME280;1347;42.122;24.746;2022-11-27T13:04:45;100472.84;;;11.56;44.86
2675;BME280;1347;42.122;24.746;2022-11-27T13:07:17;100474.72;;;11.24;44.27
2675;BME280;1347;42.122;24.746;2022-11-27T13:09:51;100480.91;;;11.21;44.17
2675;BME280;1347;42.122;24.746;2022-11-27T13:12:23;100480.69;;;11.26;44.10
2675;BME280;1347;42.122;24.746;2022-11-27T13:14:56;100477.66;;;11.31;44.11
2675;BME280;1347;42.122;24.746;2022-11-27T13:17:31;100471.16;;;11.08;43.37
2675;BME280;1347;42.122;24.746;2022-11-27T13:20:00;100474.69;;;11.09;43.72
2675;BME280;1347;42.122;24.746;2022-11-27T13:22:30;100470.53;;;11.15;43.37
2675;BME280;1347;42.122;24.746;2022-11-27T13:25:01;100467.16;;;11.05;43.31
2675;BME280;1347;42.122;24.746;2022-11-27T13:27:29;100476.19;;;11.06;43.32
2675;BME280;1347;42.122;24.746;2022-11-27T13:30:00;100474.25;;;11.06;43.03
2675;BME280;1347;42.122;24.746;2022-11-27T13:32:30;100469.56;;;11.07;43.15
2675;BME280;1347;42.122;24.746;2022-11-27T13:35:02;100470.69;;;11.06;43.48
2675;BME280;1347;42.122;24.746;2022-11-27T13:37:32;100476.88;;;11.03;44.06
2675;BME280;1347;42.122;24.746;2022-11-27T13:40:04;100469.72;;;10.98;44.23
2675;BME280;1347;42.122;24.746;2022-11-27T13:42:33;100477.25;;;10.89;44.77
2675;BME280;1347;42.122;24.746;2022-11-27T13:45:04;100474.16;;;10.91;44.21
2675;BME280;1347;42.122;24.746;2022-11-27T13:47:36;100468.34;;;10.92;43.90
2675;BME280;1347;42.122;24.746;2022-11-27T13:50:06;100473.63;;;10.85;43.72
2675;BME280;1347;42.122;24.746;2022-11-27T13:52:34;100476.25;;;10.82;44.11
2675;BME280;1347;42.122;24.746;2022-11-27T13:55:05;100472.03;;;10.84;44.14
2675;BME280;1347;42.122;24.746;2022-11-27T13:57:34;100465.94;;;10.91;44.24
2675;BME280;1347;42.122;24.746;2022-11-27T14:00:05;100466.06;;;10.94;44.61
2675;BME280;1347;42.122;24.746;2022-11-27T14:02:41;100466.41;;;10.93;43.84
2675;BME280;1347;42.122;24.746;2022-11-27T14:05:10;100467.41;;;11.00;43.88
2675;BME280;1347;42.122;24.746;2022-11-27T14:07:40;100463.47;;;10.86;44.22
2675;BME280;1347;42.122;24.746;2022-11-27T14:10:13;100462.69;;;11.01;44.38
2675;BME280;1347;42.122;24.746;2022-11-27T14:12:41;100462.16;;;10.95;43.99
2675;BME280;1347;42.122;24.746;2022-11-27T14:15:21;100452.06;;;10.99;44.69
2675;BME280;1347;42.122;24.746;2022-11-27T14:17:50;100451.88;;;10.92;44.29
2675;BME280;1347;42.122;24.746;2022-11-27T14:20:21;100459.84;;;10.69;44.48
2675;BME280;1347;42.122;24.746;2022-11-27T14:22:51;100461.91;;;10.60;44.86
2675;BME280;1347;42.122;24.746;2022-11-27T14:25:22;100460.22;;;10.68;45.09
2675;BME280;1347;42.122;24.746;2022-11-27T14:27:57;100458.28;;;10.68;44.98
2675;BME280;1347;42.122;24.746;2022-11-27T14:30:30;100458.03;;;10.61;44.53
2675;BME280;1347;42.122;24.746;2022-11-27T14:33:00;100457.16;;;10.57;44.98
2675;BME280;1347;42.122;24.746;2022-11-27T14:35:28;100459.22;;;10.48;45.38
2675;BME280;1347;42.122;24.746;2022-11-27T14:38:06;100452.28;;;10.26;45.85
2675;BME280;1347;42.122;24.746;2022-11-27T14:40:36;100459.13;;;10.32;46.20
2675;BME280;1347;42.122;24.746;2022-11-27T14:43:08;100456.25;;;10.29;45.96
2675;BME280;1347;42.122;24.746;2022-11-27T14:45:35;100459.91;;;10.33;46.46
2675;BME280;1347;42.122;24.746;2022-11-27T14:48:03;100463.81;;;10.32;46.13
2675;BME280;1347;42.122;24.746;2022-11-27T14:50:30;100464.84;;;10.27;46.26
2675;BME280;1347;42.122;24.746;2022-11-27T14:52:57;100462.88;;;10.16;46.62
2675;BME280;1347;42.122;24.746;2022-11-27T14:55:25;100456.72;;;10.19;46.84
2675;BME280;1347;42.122;24.746;2022-11-27T14:57:54;100458.22;;;10.16;46.80
2675;BME280;1347;42.122;24.746;2022-11-27T15:00:23;100450.31;;;10.03;46.92
2675;BME280;1347;42.122;24.746;2022-11-27T15:02:52;100455.94;;;10.06;46.75
2675;BME280;1347;42.122;24.746;2022-11-27T15:05:21;100450.19;;;9.99;46.78
2675;BME280;1347;42.122;24.746;2022-11-27T15:07:50;100454.66;;;9.91;47.30
2675;BME280;1347;42.122;24.746;2022-11-27T15:10:28;100458.75;;;9.97;47.38
2675;BME280;1347;42.122;24.746;2022-11-27T15:12:58;100459.00;;;10.05;47.74
2675;BME280;1347;42.122;24.746;2022-11-27T15:15:27;100464.34;;;10.01;47.57
2675;BME280;1347;42.122;24.746;2022-11-27T15:18:00;100454.66;;;9.91;48.11
2675;BME280;1347;42.122;24.746;2022-11-27T15:20:34;100457.88;;;9.93;48.81
2675;BME280;1347;42.122;24.746;2022-11-27T15:23:03;100464.00;;;9.90;49.98
2675;BME280;1347;42.122;24.746;2022-11-27T15:25:39;100464.13;;;9.94;50.56
2675;BME280;1347;42.122;24.746;2022-11-27T15:28:32;100462.88;;;10.04;50.66
2675;BME280;1347;42.122;24.746;2022-11-27T15:31:02;100467.56;;;10.03;50.94
2675;BME280;1347;42.122;24.746;2022-11-27T15:33:32;100464.81;;;9.91;51.63
2675;BME280;1347;42.122;24.746;2022-11-27T15:36:14;100459.56;;;9.86;52.19
2675;BME280;1347;42.122;24.746;2022-11-27T15:38:46;100461.06;;;9.83;52.32
2675;BME280;1347;42.122;24.746;2022-11-27T15:41:21;100456.38;;;9.84;53.02
2675;BME280;1347;42.122;24.746;2022-11-27T15:43:52;100454.91;;;9.86;53.19
2675;BME280;1347;42.122;24.746;2022-11-27T15:46:27;100459.13;;;9.84;53.23
2675;BME280;1347;42.122;24.746;2022-11-27T15:48:58;100450.56;;;9.85;53.51
2675;BME280;1347;42.122;24.746;2022-11-27T15:51:27;100459.44;;;9.70;53.92
2675;BME280;1347;42.122;24.746;2022-11-27T15:53:56;100440.72;;;9.72;53.73
2675;BME280;1347;42.122;24.746;2022-11-27T15:56:24;100436.25;;;9.68;53.90
2675;BME280;1347;42.122;24.746;2022-11-27T15:58:55;100443.34;;;9.69;54.28
2675;BME280;1347;42.122;24.746;2022-11-27T16:01:24;100442.91;;;9.79;54.12
2675;BME280;1347;42.122;24.746;2022-11-27T16:03:52;100437.97;;;9.60;53.72
2675;BME280;1347;42.122;24.746;2022-11-27T16:06:21;100440.16;;;9.67;53.92
2675;BME280;1347;42.122;24.746;2022-11-27T16:08:53;100435.94;;;9.69;54.17
2675;BME280;1347;42.122;24.746;2022-11-27T16:11:22;100435.25;;;9.60;54.05
2675;BME280;1347;42.122;24.746;2022-11-27T16:13:51;100437.63;;;9.62;54.38
2675;BME280;1347;42.122;24.746;2022-11-27T16:16:22;100436.84;;;9.61;54.48
2675;BME280;1347;42.122;24.746;2022-11-27T16:18:50;100438.31;;;9.58;54.20
2675;BME280;1347;42.122;24.746;2022-11-27T16:21:19;100445.16;;;9.52;54.58
2675;BME280;1347;42.122;24.746;2022-11-27T16:23:47;100442.97;;;9.58;54.42
2675;BME280;1347;42.122;24.746;2022-11-27T16:26:16;100437.94;;;9.48;54.75
2675;BME280;1347;42.122;24.746;2022-11-27T16:28:45;100440.31;;;9.37;55.34
2675;BME280;1347;42.122;24.746;2022-11-27T16:31:13;100442.84;;;9.42;55.57
2675;BME280;1347;42.122;24.746;2022-11-27T16:33:43;100439.66;;;9.40;55.35
2675;BME280;1347;42.122;24.746;2022-11-27T16:36:13;100441.59;;;9.40;55.26
2675;BME280;1347;42.122;24.746;2022-11-27T16:38:43;100433.38;;;9.40;55.23
2675;BME280;1347;42.122;24.746;2022-11-27T16:41:13;100435.22;;;9.36;55.67
2675;BME280;1347;42.122;24.746;2022-11-27T16:43:43;100437.16;;;9.35;55.91
2675;BME280;1347;42.122;24.746;2022-11-27T16:46:14;100434.50;;;9.39;55.56
2675;BME280;1347;42.122;24.746;2022-11-27T16:48:45;100437.00;;;9.32;56.20
2675;BME280;1347;42.122;24.746;2022-11-27T16:51:15;100447.38;;;9.26;56.43
2675;BME280;1347;42.122;24.746;2022-11-27T16:53:47;100433.47;;;9.31;56.29
2675;BME280;1347;42.122;24.746;2022-11-27T16:56:17;100435.97;;;9.24;56.50
2675;BME280;1347;42.122;24.746;2022-11-27T16:58:47;100435.19;;;9.23;56.56
2675;BME280;1347;42.122;24.746;2022-11-27T17:01:18;100437.69;;;9.29;56.49
2675;BME280;1347;42.122;24.746;2022-11-27T17:03:49;100441.91;;;9.26;56.45
2675;BME280;1347;42.122;24.746;2022-11-27T17:06:19;100441.47;;;9.36;56.36
2675;BME280;1347;42.122;24.746;2022-11-27T17:08:48;100443.53;;;9.39;56.12
2675;BME280;1347;42.122;24.746;2022-11-27T17:11:18;100440.97;;;9.22;55.75
2675;BME280;1347;42.122;24.746;2022-11-27T17:13:48;100444.47;;;9.10;56.26
2675;BME280;1347;42.122;24.746;2022-11-27T17:16:19;100435.09;;;8.99;56.40
2675;BME280;1347;42.122;24.746;2022-11-27T17:18:50;100438.56;;;8.88;56.98
2675;BME280;1347;42.122;24.746;2022-11-27T17:21:21;100428.19;;;8.81;57.29
2675;BME280;1347;42.122;24.746;2022-11-27T17:23:53;100426.66;;;8.71;57.75
2675;BME280;1347;42.122;24.746;2022-11-27T17:26:23;100436.00;;;8.70;57.46
2675;BME280;1347;42.122;24.746;2022-11-27T17:28:53;100433.91;;;8.67;57.90
2675;BME280;1347;42.122;24.746;2022-11-27T17:31:23;100437.59;;;8.51;58.33
2675;BME280;1347;42.122;24.746;2022-11-27T17:33:55;100440.81;;;8.53;58.32
2675;BME280;1347;42.122;24.746;2022-11-27T17:36:25;100439.78;;;8.57;58.55
2675;BME280;1347;42.122;24.746;2022-11-27T17:38:54;100441.38;;;8.58;58.83
2675;BME280;1347;42.122;24.746;2022-11-27T17:41:23;100442.09;;;8.46;59.25
2675;BME280;1347;42.122;24.746;2022-11-27T17:43:53;100444.53;;;8.48;58.96
2675;BME280;1347;42.122;24.746;2022-11-27T17:46:22;100437.91;;;8.49;59.27
2675;BME280;1347;42.122;24.746;2022-11-27T17:48:54;100444.53;;;8.48;59.48
2675;BME280;1347;42.122;24.746;2022-11-27T17:51:24;100445.97;;;8.45;59.70
2675;BME280;1347;42.122;24.746;2022-11-27T17:53:53;100446.44;;;8.47;59.22
2675;BME280;1347;42.122;24.746;2022-11-27T17:56:22;100442.44;;;8.45;59.37
2675;BME280;1347;42.122;24.746;2022-11-27T17:58:51;100442.31;;;8.41;59.78
2675;BME280;1347;42.122;24.746;2022-11-27T18:01:21;100446.34;;;8.44;59.75
2675;BME280;1347;42.122;24.746;2022-11-27T18:03:52;100446.78;;;8.46;59.75
2675;BME280;1347;42.122;24.746;2022-11-27T18:06:22;100442.81;;;8.43;59.98
2675;BME280;1347;42.122;24.746;2022-11-27T18:08:52;100436.53;;;8.43;60.47
2675;BME280;1347;42.122;24.746;2022-11-27T18:11:25;100437.50;;;8.38;60.94
2675;BME280;1347;42.122;24.746;2022-11-27T18:13:54;100439.53;;;8.50;60.39
2675;BME280;1347;42.122;24.746;2022-11-27T18:16:25;100440.25;;;8.59;59.96
2675;BME280;1347;42.122;24.746;2022-11-27T18:19:02;100438.19;;;8.56;60.65
2675;BME280;1347;42.122;24.746;2022-11-27T18:21:33;100433.84;;;8.55;60.01
2675;BME280;1347;42.122;24.746;2022-11-27T18:24:06;100436.06;;;8.62;60.44
2675;BME280;1347;42.122;24.746;2022-11-27T18:26:35;100442.00;;;8.64;60.23
2675;BME280;1347;42.122;24.746;2022-11-27T18:29:06;100444.53;;;8.69;60.08
2675;BME280;1347;42.122;24.746;2022-11-27T18:31:37;100450.06;;;8.60;60.22
2675;BME280;1347;42.122;24.746;2022-11-27T18:34:06;100444.13;;;8.58;59.81
2675;BME280;1347;42.122;24.746;2022-11-27T18:36:36;100439.78;;;8.57;59.95
2675;BME280;1347;42.122;24.746;2022-11-27T18:39:05;100439.94;;;8.61;60.41
2675;BME280;1347;42.122;24.746;2022-11-27T18:41:34;100444.38;;;8.65;60.17
2675;BME280;1347;42.122;24.746;2022-11-27T18:44:03;100439.06;;;8.69;60.03
2675;BME280;1347;42.122;24.746;2022-11-27T18:46:33;100435.19;;;8.70;60.21
2675;BME280;1347;42.122;24.746;2022-11-27T18:49:01;100426.72;;;8.63;60.69
2675;BME280;1347;42.122;24.746;2022-11-27T18:51:31;100429.16;;;8.76;60.40
2675;BME280;1347;42.122;24.746;2022-11-27T18:54:01;100434.78;;;8.80;60.71
2675;BME280;1347;42.122;24.746;2022-11-27T18:56:31;100427.84;;;8.82;60.44
2675;BME280;1347;42.122;24.746;2022-11-27T18:59:04;100428.97;;;8.81;60.87
2675;BME280;1347;42.122;24.746;2022-11-27T19:01:35;100429.44;;;8.83;60.65
2675;BME280;1347;42.122;24.746;2022-11-27T19:04:04;100436.97;;;8.86;60.70
2675;BME280;1347;42.122;24.746;2022-11-27T19:06:35;100431.38;;;8.83;61.10
2675;BME280;1347;42.122;24.746;2022-11-27T19:09:11;100422.78;;;8.72;61.67
2675;BME280;1347;42.122;24.746;2022-11-27T19:11:41;100422.38;;;8.82;61.57
2675;BME280;1347;42.122;24.746;2022-11-27T19:14:13;100424.84;;;8.75;61.87
2675;BME280;1347;42.122;24.746;2022-11-27T19:16:44;100425.78;;;8.79;61.73
2675;BME280;1347;42.122;24.746;2022-11-27T19:19:15;100423.97;;;8.83;61.98
2675;BME280;1347;42.122;24.746;2022-11-27T19:21:46;100435.50;;;8.89;61.89
2675;BME280;1347;42.122;24.746;2022-11-27T19:24:17;100423.25;;;8.74;62.40
2675;BME280;1347;42.122;24.746;2022-11-27T19:26:46;100420.41;;;8.71;62.28
2675;BME280;1347;42.122;24.746;2022-11-27T19:29:14;100422.31;;;8.70;62.36
2675;BME280;1347;42.122;24.746;2022-11-27T19:31:53;100414.94;;;8.71;62.26
2675;BME280;1347;42.122;24.746;2022-11-27T19:34:24;100415.81;;;8.63;62.40
2675;BME280;1347;42.122;24.746;2022-11-27T19:36:55;100415.34;;;8.61;60.77
2675;BME280;1347;42.122;24.746;2022-11-27T19:39:27;100417.44;;;8.55;60.04
2675;BME280;1347;42.122;24.746;2022-11-27T19:41:55;100415.41;;;8.52;60.27
2675;BME280;1347;42.122;24.746;2022-11-27T19:44:43;100411.63;;;8.44;60.37
2675;BME280;1347;42.122;24.746;2022-11-27T19:47:31;100405.88;;;8.37;60.73
2675;BME280;1347;42.122;24.746;2022-11-27T19:50:00;100414.84;;;8.38;60.87
2675;BME280;1347;42.122;24.746;2022-11-27T19:52:29;100419.56;;;8.29;60.92
2675;BME280;1347;42.122;24.746;2022-11-27T19:55:01;100416.88;;;8.20;61.42
2675;BME280;1347;42.122;24.746;2022-11-27T19:57:30;100412.63;;;8.10;62.02
2675;BME280;1347;42.122;24.746;2022-11-27T19:59:59;100409.94;;;8.02;62.24
2675;BME280;1347;42.122;24.746;2022-11-27T20:02:29;100420.72;;;7.98;62.41
2675;BME280;1347;42.122;24.746;2022-11-27T20:04:58;100414.28;;;7.94;62.81
2675;BME280;1347;42.122;24.746;2022-11-27T20:07:29;100417.38;;;7.93;63.27
2675;BME280;1347;42.122;24.746;2022-11-27T20:10:00;100416.59;;;7.92;63.13
2675;BME280;1347;42.122;24.746;2022-11-27T20:12:29;100421.09;;;7.88;63.39
2675;BME280;1347;42.122;24.746;2022-11-27T20:15:02;100422.69;;;7.89;63.25
2675;BME280;1347;42.122;24.746;2022-11-27T20:17:33;100419.47;;;7.87;63.56
2675;BME280;1347;42.122;24.746;2022-11-27T20:20:06;100407.75;;;7.87;63.83
2675;BME280;1347;42.122;24.746;2022-11-27T20:22:35;100409.03;;;7.89;63.55
2675;BME280;1347;42.122;24.746;2022-11-27T20:25:06;100407.25;;;7.93;63.74
2675;BME280;1347;42.122;24.746;2022-11-27T20:27:42;100402.06;;;8.00;63.54
2675;BME280;1347;42.122;24.746;2022-11-27T20:31:11;100405.72;;;8.04;63.30
2675;BME280;1347;42.122;24.746;2022-11-27T20:33:55;100400.41;;;8.08;63.45
2675;BME280;1347;42.122;24.746;2022-11-27T20:36:29;100397.03;;;8.11;63.51
2675;BME280;1347;42.122;24.746;2022-11-27T20:39:02;100398.00;;;8.06;63.35
2675;BME280;1347;42.122;24.746;2022-11-27T20:41:33;100394.31;;;8.11;63.27
2675;BME280;1347;42.122;24.746;2022-11-27T20:44:03;100392.38;;;8.11;63.09
2675;BME280;1347;42.122;24.746;2022-11-27T20:46:35;100392.03;;;8.13;62.76
2675;BME280;1347;42.122;24.746;2022-11-27T20:49:03;100390.16;;;8.05;63.18
2675;BME280;1347;42.122;24.746;2022-11-27T20:51:32;100385.50;;;8.05;63.35
2675;BME280;1347;42.122;24.746;2022-11-27T20:54:04;100388.56;;;8.04;63.47
2675;BME280;1347;42.122;24.746;2022-11-27T20:56:58;100389.03;;;8.06;63.35
2675;BME280;1347;42.122;24.746;2022-11-27T20:59:26;100386.97;;;8.03;63.72
2675;BME280;1347;42.122;24.746;2022-11-27T21:01:59;100393.56;;;8.02;64.16
2675;BME280;1347;42.122;24.746;2022-11-27T21:04:28;100384.88;;;8.00;63.98
2675;BME280;1347;42.122;24.746;2022-11-27T21:06:56;100384.88;;;8.00;63.48
2675;BME280;1347;42.122;24.746;2022-11-27T21:09:24;100385.69;;;8.00;63.73
2675;BME280;1347;42.122;24.746;2022-11-27T21:11:52;100381.16;;;8.04;64.21
2675;BME280;1347;42.122;24.746;2022-11-27T21:14:21;100380.22;;;8.00;64.28
2675;BME280;1347;42.122;24.746;2022-11-27T21:16:50;100382.97;;;8.00;64.08
2675;BME280;1347;42.122;24.746;2022-11-27T21:19:20;100377.69;;;7.95;64.25
2675;BME280;1347;42.122;24.746;2022-11-27T21:21:48;100371.41;;;7.95;64.67
2675;BME280;1347;42.122;24.746;2022-11-27T21:24:17;100368.25;;;7.93;64.40
2675;BME280;1347;42.122;24.746;2022-11-27T21:26:45;100376.59;;;7.88;64.47
2675;BME280;1347;42.122;24.746;2022-11-27T21:29:13;100372.91;;;7.92;64.48
2675;BME280;1347;42.122;24.746;2022-11-27T21:31:42;100368.38;;;7.96;64.51
2675;BME280;1347;42.122;24.746;2022-11-27T21:34:10;100368.50;;;8.00;64.44
2675;BME280;1347;42.122;24.746;2022-11-27T21:36:37;100357.59;;;8.00;64.38
2675;BME280;1347;42.122;24.746;2022-11-27T21:39:07;100358.53;;;8.04;63.99
2675;BME280;1347;42.122;24.746;2022-11-27T21:41:35;100359.66;;;8.03;64.29
2675;BME280;1347;42.122;24.746;2022-11-27T21:44:03;100362.84;;;8.05;64.10
2675;BME280;1347;42.122;24.746;2022-11-27T21:46:30;100357.84;;;8.07;63.71
2675;BME280;1347;42.122;24.746;2022-11-27T21:48:59;100353.41;;;8.02;63.56
2675;BME280;1347;42.122;24.746;2022-11-27T21:51:28;100352.28;;;8.03;63.69
2675;BME280;1347;42.122;24.746;2022-11-27T21:53:56;100361.44;;;7.99;64.14
2675;BME280;1347;42.122;24.746;2022-11-27T21:56:25;100351.66;;;7.98;64.14
2675;BME280;1347;42.122;24.746;2022-11-27T21:58:52;100362.09;;;7.96;64.21
2675;BME280;1347;42.122;24.746;2022-11-27T22:01:21;100360.50;;;7.95;64.51
2675;BME280;1347;42.122;24.746;2022-11-27T22:03:49;100370.63;;;7.94;64.95
2675;BME280;1347;42.122;24.746;2022-11-27T22:06:21;100370.97;;;7.93;65.95
2675;BME280;1347;42.122;24.746;2022-11-27T22:08:49;100368.25;;;7.93;67.03
2675;BME280;1347;42.122;24.746;2022-11-27T22:11:20;100366.16;;;7.90;66.79
2675;BME280;1347;42.122;24.746;2022-11-27T22:13:47;100375.34;;;7.85;66.76
2675;BME280;1347;42.122;24.746;2022-11-27T22:16:17;100359.25;;;7.63;66.72
2675;BME280;1347;42.122;24.746;2022-11-27T22:18:46;100366.66;;;7.62;67.98
2675;BME280;1347;42.122;24.746;2022-11-27T22:21:13;100360.88;;;7.55;68.41
2675;BME280;1347;42.122;24.746;2022-11-27T22:23:42;100362.00;;;7.63;69.06
2675;BME280;1347;42.122;24.746;2022-11-27T22:26:11;100367.31;;;7.59;68.93
2675;BME280;1347;42.122;24.746;2022-11-27T22:28:39;100360.75;;;7.52;71.18
2675;BME280;1347;42.122;24.746;2022-11-27T22:31:07;100355.69;;;7.42;73.45
2675;BME280;1347;42.122;24.746;2022-11-27T22:33:34;100358.59;;;7.28;76.54
2675;BME280;1347;42.122;24.746;2022-11-27T22:36:10;100359.94;;;7.13;79.30
2675;BME280;1347;42.122;24.746;2022-11-27T22:38:39;100358.84;;;7.06;77.42
2675;BME280;1347;42.122;24.746;2022-11-27T22:41:08;100352.78;;;7.00;80.56
2675;BME280;1347;42.122;24.746;2022-11-27T22:43:35;100360.78;;;6.96;79.10
2675;BME280;1347;42.122;24.746;2022-11-27T22:46:03;100347.50;;;6.86;78.10
2675;BME280;1347;42.122;24.746;2022-11-27T22:48:31;100356.00;;;6.85;81.32
2675;BME280;1347;42.122;24.746;2022-11-27T22:50:58;100357.44;;;6.91;83.38
2675;BME280;1347;42.122;24.746;2022-11-27T22:53:25;100352.31;;;6.89;83.99
2675;BME280;1347;42.122;24.746;2022-11-27T22:55:52;100353.91;;;6.90;83.13
2675;BME280;1347;42.122;24.746;2022-11-27T22:58:20;100350.22;;;6.86;82.09
2675;BME280;1347;42.122;24.746;2022-11-27T23:00:53;100358.09;;;6.88;81.67
2675;BME280;1347;42.122;24.746;2022-11-27T23:03:20;100350.06;;;6.91;82.67
2675;BME280;1347;42.122;24.746;2022-11-27T23:05:47;100349.59;;;6.89;82.72
2675;BME280;1347;42.122;24.746;2022-11-27T23:08:14;100352.47;;;6.84;82.75
2675;BME280;1347;42.122;24.746;2022-11-27T23:10:43;100356.47;;;6.87;82.91
2675;BME280;1347;42.122;24.746;2022-11-27T23:13:10;100356.47;;;6.87;83.22
2675;BME280;1347;42.122;24.746;2022-11-27T23:15:39;100363.06;;;6.77;80.30
2675;BME280;1347;42.122;24.746;2022-11-27T23:18:06;100356.97;;;6.89;84.53
2675;BME280;1347;42.122;24.746;2022-11-27T23:20:33;100351.34;;;6.85;79.52
2675;BME280;1347;42.122;24.746;2022-11-27T23:23:00;100352.00;;;6.91;80.81
2675;BME280;1347;42.122;24.746;2022-11-27T23:25:27;100358.72;;;6.85;79.61
2675;BME280;1347;42.122;24.746;2022-11-27T23:27:56;100347.84;;;6.76;80.79
2675;BME280;1347;42.122;24.746;2022-11-27T23:30:23;100341.91;;;6.83;82.30
2675;BME280;1347;42.122;24.746;2022-11-27T23:32:51;100342.56;;;6.80;84.80
2675;BME280;1347;42.122;24.746;2022-11-27T23:35:18;100345.59;;;6.78;84.25
2675;BME280;1347;42.122;24.746;2022-11-27T23:37:45;100344.31;;;6.76;83.75
2675;BME280;1347;42.122;24.746;2022-11-27T23:40:12;100346.44;;;6.70;85.90
2675;BME280;1347;42.122;24.746;2022-11-27T23:42:39;100349.16;;;6.61;86.61
2675;BME280;1347;42.122;24.746;2022-11-27T23:45:08;100350.28;;;6.52;85.57
2675;BME280;1347;42.122;24.746;2022-11-27T23:47:35;100340.53;;;6.51;87.35
2675;BME280;1347;42.122;24.746;2022-11-27T23:50:04;100342.44;;;6.50;87.50
2675;BME280;1347;42.122;24.746;2022-11-27T23:52:32;100338.94;;;6.50;88.16
2675;BME280;1347;42.122;24.746;2022-11-27T23:54:59;100340.97;;;6.53;88.71
2675;BME280;1347;42.122;24.746;2022-11-27T23:57:25;100341.78;;;6.53;89.95
2675;BME280;1347;42.122;24.746;2022-11-27T23:59:52;100341.63;;;6.58;90.36
